Aviation Digital Data Service (ADDS)

Output produced by METARs form (0843 UTC 21 October 2014)
found at http://aviationweather.gov/adds/metars/
 
KHPN 210547Z 2106/2206 VRB03KT P6SM FEW045 BKN130 
     TEMPO 2111/2113 -RA BKN040 
     FM211500 14004KT P6SM SCT035 OVC080 
     TEMPO 2115/2119 -RA BKN035 
     FM212300 VRB04KT 6SM -RADZ BKN035 AMD NOT SKED